Time;durP1;ratioP1;P1;durP2;ratioP2;P2;SDS_P1;SDS_P2;PMS_P1;PMS_P2;Temp;Humidity;BMP_temperature;BMP_pressure;BME280_temperature;BME280_humidity;BME280_pressure;Samples;Min_cycle;Max_cycle;Signal;HPM_P1;HPM_P2
2021/01/28 00:02:20;;;;;;;9.20;4.40;;;;;;;-2.03;83.23;99461.81;5085285;28;20035;-67
2021/01/28 00:04:45;;;;;;;8.45;5.13;;;;;;;-1.97;83.27;99477.25;5085115;28;20028;-67
2021/01/28 00:07:10;;;;;;;7.47;5.28;;;;;;;-1.97;83.21;99476.38;5085380;28;20024;-67
2021/01/28 00:09:36;;;;;;;10.50;5.22;;;;;;;-1.96;83.43;99471.31;5084751;28;20080;-67
2021/01/28 00:12:01;;;;;;;11.30;5.47;;;;;;;-1.94;83.29;99479.00;5083733;28;20017;-68
2021/01/28 00:14:26;;;;;;;8.90;4.32;;;;;;;-1.96;83.14;99476.41;5085034;28;20103;-67
2021/01/28 00:16:52;;;;;;;7.07;4.63;;;;;;;-2.01;83.00;99468.66;5084817;28;20048;-67
2021/01/28 00:19:17;;;;;;;6.72;4.53;;;;;;;-2.02;83.23;99474.56;5084856;28;20024;-66
2021/01/28 00:21:43;;;;;;;10.18;4.40;;;;;;;-2.02;83.15;99472.03;5084914;28;20024;-67
2021/01/28 00:24:08;;;;;;;8.90;5.05;;;;;;;-2.03;83.33;99472.84;5084713;28;20024;-67
2021/01/28 00:26:34;;;;;;;9.15;5.43;;;;;;;-2.04;83.24;99458.41;5084670;28;20024;-67
2021/01/28 00:28:59;;;;;;;9.80;5.78;;;;;;;-1.96;83.14;99470.44;5084662;28;20024;-68
2021/01/28 00:31:25;;;;;;;7.97;4.78;;;;;;;-1.94;83.27;99468.81;5084805;28;20026;-68
2021/01/28 00:33:50;;;;;;;7.38;4.35;;;;;;;-1.93;83.14;99460.38;5084704;28;20069;-68
2021/01/28 00:36:15;;;;;;;8.65;4.60;;;;;;;-1.93;82.88;99466.31;5084251;28;20126;-67
2021/01/28 00:38:41;;;;;;;7.75;4.32;;;;;;;-1.93;82.74;99458.69;5084642;28;20028;-68
2021/01/28 00:41:09;;;;;;;9.57;4.43;;;;;;;-2.03;82.55;99466.91;5084267;28;20025;-67
2021/01/28 00:43:35;;;;;;;8.05;4.85;;;;;;;-2.05;82.61;99461.78;5084459;28;20016;-67
2021/01/28 00:46:01;;;;;;;5.88;3.58;;;;;;;-2.10;82.41;99465.88;5084468;28;20048;-67
2021/01/28 00:48:27;;;;;;;10.32;3.85;;;;;;;-2.21;82.42;99457.94;5084439;28;20045;-67
2021/01/28 00:50:54;;;;;;;7.82;4.00;;;;;;;-2.29;82.82;99462.81;5083009;28;20119;-66
2021/01/28 00:53:20;;;;;;;6.50;3.50;;;;;;;-2.26;82.43;99465.44;5084431;28;20025;-67
2021/01/28 00:55:46;;;;;;;8.82;4.25;;;;;;;-2.30;82.47;99478.03;5084045;28;20075;-68
2021/01/28 00:58:13;;;;;;;7.18;4.22;;;;;;;-2.35;82.61;99467.72;5082935;28;20028;-67
2021/01/28 01:00:41;;;;;;;8.77;4.60;;;;;;;-2.34;82.22;99484.69;5083924;28;20093;-68
2021/01/28 01:03:08;;;;;;;9.15;3.95;;;;;;;-2.42;82.19;99481.06;5084179;28;20016;-67
2021/01/28 01:05:35;;;;;;;5.72;4.30;;;;;;;-2.50;82.28;99476.63;5084034;28;20027;-68
2021/01/28 01:08:03;;;;;;;5.60;4.00;;;;;;;-2.58;82.00;99477.19;5084064;28;20028;-67
2021/01/28 01:10:42;;;;;;;7.72;4.47;;;;;;;-2.68;82.42;99479.47;5083694;28;20031;-67
2021/01/28 01:13:11;;;;;;;6.70;4.25;;;;;;;-2.68;82.58;99481.13;5084075;28;20028;-67
2021/01/28 01:15:37;;;;;;;6.70;3.78;;;;;;;-2.71;82.26;99481.03;5083633;28;20076;-68
2021/01/28 01:18:07;;;;;;;8.18;4.18;;;;;;;-2.84;82.16;99478.13;5083889;28;20054;-68
2021/01/28 01:20:33;;;;;;;8.57;5.53;;;;;;;-2.90;82.01;99483.00;5083839;28;20103;-68
2021/01/28 01:22:58;;;;;;;5.85;4.15;;;;;;;-2.95;82.14;99476.91;5083650;28;20017;-67
2021/01/28 01:25:24;;;;;;;8.02;4.57;;;;;;;-3.06;82.48;99462.22;5083430;28;20040;-68
2021/01/28 01:27:50;;;;;;;9.57;4.32;;;;;;;-3.13;82.46;99468.78;5082387;28;20031;-66
2021/01/28 01:30:17;;;;;;;9.27;5.30;;;;;;;-3.14;82.13;99471.25;5082224;28;20020;-66
2021/01/28 01:32:43;;;;;;;7.20;4.40;;;;;;;-3.25;82.42;99468.38;5083670;28;20488;-67
2021/01/28 01:35:09;;;;;;;9.13;4.68;;;;;;;-3.28;82.59;99469.16;5083464;28;20070;-67
2021/01/28 01:37:35;;;;;;;11.93;5.18;;;;;;;-3.32;82.58;99469.84;5083446;28;20450;-67
2021/01/28 01:40:00;;;;;;;10.52;6.38;;;;;;;-3.36;82.73;99470.56;5083392;28;20013;-68
2021/01/28 01:42:26;;;;;;;9.68;5.18;;;;;;;-3.40;82.72;99474.69;5083519;28;20064;-69
2021/01/28 01:44:51;;;;;;;11.05;5.65;;;;;;;-3.44;83.02;99466.91;5083446;28;20087;-66
2021/01/28 01:47:17;;;;;;;7.45;3.70;;;;;;;-3.41;82.73;99480.59;5083476;28;20023;-67
2021/01/28 01:49:44;;;;;;;7.55;4.53;;;;;;;-3.49;82.65;99474.38;5083463;28;20073;-67
2021/01/28 01:52:11;;;;;;;8.98;5.80;;;;;;;-3.49;82.65;99471.84;5083502;28;20024;-67
2021/01/28 01:54:37;;;;;;;6.07;3.88;;;;;;;-3.55;82.55;99462.34;5083309;28;20080;-67
2021/01/28 01:57:35;;;;;;;7.55;3.42;;;;;;;-3.54;82.63;99469.16;5083168;28;20058;-68
2021/01/28 02:00:10;;;;;;;9.15;4.88;;;;;;;-3.57;82.80;99478.31;5078836;28;20059;-67
2021/01/28 02:02:39;;;;;;;9.95;4.22;;;;;;;-3.56;82.48;99463.16;5083139;28;20029;-67
2021/01/28 02:05:16;;;;;;;6.93;3.40;;;;;;;-3.59;82.60;99465.59;5083170;28;20021;-68
2021/01/28 02:07:41;;;;;;;5.60;3.28;;;;;;;-3.57;82.54;99468.19;5082182;28;20035;-67
2021/01/28 02:10:10;;;;;;;8.25;3.95;;;;;;;-3.60;82.45;99466.41;5082985;28;20032;-68
2021/01/28 02:12:36;;;;;;;8.45;3.25;;;;;;;-3.61;82.67;99460.47;5083174;28;20064;-68
2021/01/28 02:15:02;;;;;;;7.25;3.70;;;;;;;-3.62;82.62;99460.41;5083067;28;20031;-67
2021/01/28 02:17:28;;;;;;;4.95;3.35;;;;;;;-3.56;82.53;99468.22;5082953;28;20067;-67
2021/01/28 02:20:12;;;;;;;10.38;4.22;;;;;;;-3.58;82.75;99476.59;5081713;28;20044;-67
2021/01/28 02:22:57;;;;;;;6.18;4.20;;;;;;;-3.51;82.78;99465.84;5081483;28;20096;-67
2021/01/28 02:25:25;;;;;;;5.75;3.22;;;;;;;-3.51;82.48;99470.91;5082694;28;20031;-68
2021/01/28 02:27:54;;;;;;;6.55;3.83;;;;;;;-3.54;82.61;99464.06;5083085;28;20446;-66
2021/01/28 02:30:23;;;;;;;12.00;4.07;;;;;;;-3.55;82.73;99474.19;5081545;28;20047;-69
2021/01/28 02:32:50;;;;;;;7.68;4.47;;;;;;;-3.52;82.42;99459.91;5083169;28;20372;-67
2021/01/28 02:35:18;;;;;;;5.20;2.78;;;;;;;-3.55;81.81;99464.91;5081949;28;20024;-69
2021/01/28 02:37:46;;;;;;;5.13;3.40;;;;;;;-3.64;81.99;99460.34;5086508;28;20040;-69
2021/01/28 02:40:13;;;;;;;8.77;4.85;;;;;;;-3.75;82.42;99472.69;5086542;28;20088;-67
2021/01/28 02:42:39;;;;;;;6.80;3.45;;;;;;;-3.69;82.38;99468.63;5086578;28;20035;-67
2021/01/28 02:45:06;;;;;;;7.03;4.00;;;;;;;-3.69;82.00;99468.63;5086294;28;20028;-68
2021/01/28 02:47:31;;;;;;;4.93;2.70;;;;;;;-3.72;82.01;99450.78;5086458;28;20024;-68
2021/01/28 02:49:57;;;;;;;6.88;4.20;;;;;;;-3.79;82.01;99463.25;5086339;28;20017;-67
2021/01/28 02:52:22;;;;;;;8.55;4.90;;;;;;;-3.81;82.19;99464.00;5086400;28;20025;-67
2021/01/28 02:54:52;;;;;;;5.75;3.85;;;;;;;-3.81;82.32;99469.94;5085923;28;20024;-66
2021/01/28 02:57:17;;;;;;;10.27;4.32;;;;;;;-3.89;82.27;99458.66;5086147;28;20036;-67
2021/01/28 02:59:43;;;;;;;7.53;4.47;;;;;;;-3.77;82.32;99463.31;5086165;28;20043;-67
2021/01/28 03:02:15;;;;;;;7.38;3.35;;;;;;;-3.80;82.24;99458.97;5086277;28;20031;-66
2021/01/28 03:04:41;;;;;;;5.25;3.33;;;;;;;-3.80;82.05;99453.06;5084689;28;20413;-67
2021/01/28 03:07:08;;;;;;;10.10;5.25;;;;;;;-3.82;82.24;99450.47;5086030;28;20329;-67
2021/01/28 03:09:34;;;;;;;5.75;3.85;;;;;;;-3.80;82.44;99453.06;5085866;28;20039;-65
2021/01/28 03:12:00;;;;;;;6.20;3.97;;;;;;;-3.80;82.46;99451.34;5084437;28;20024;-66
2021/01/28 03:14:25;;;;;;;6.45;4.35;;;;;;;-3.75;82.31;99446.44;5085824;28;20028;-66
2021/01/28 03:16:51;;;;;;;7.00;4.53;;;;;;;-3.68;82.39;99450.06;5086029;28;20035;-67
2021/01/28 03:19:20;;;;;;;7.68;4.32;;;;;;;-3.65;82.34;99458.66;5085913;28;20104;-69
2021/01/28 03:21:46;;;;;;;9.63;4.68;;;;;;;-3.65;82.29;99451.03;5085747;28;20024;-67
2021/01/28 03:24:11;;;;;;;7.53;4.57;;;;;;;-3.69;81.86;99446.66;5085820;28;20031;-67
2021/01/28 03:26:37;;;;;;;6.63;4.63;;;;;;;-3.71;82.08;99452.50;5085649;28;20024;-66
2021/01/28 03:29:04;;;;;;;6.35;4.30;;;;;;;-3.78;81.84;99441.25;5085906;28;20028;-68
2021/01/28 03:31:29;;;;;;;7.85;4.03;;;;;;;-3.80;81.68;99447.97;5085867;28;20076;-67
2021/01/28 03:33:54;;;;;;;7.78;4.00;;;;;;;-3.84;81.86;99456.28;5085722;28;20020;-66
2021/01/28 03:36:20;;;;;;;9.60;4.05;;;;;;;-3.86;81.86;99449.50;5083997;28;20392;-67
2021/01/28 03:38:45;;;;;;;9.80;5.63;;;;;;;-3.87;81.70;99449.44;5084429;28;20032;-67
2021/01/28 03:41:10;;;;;;;6.35;4.25;;;;;;;-3.87;81.85;99447.78;5085453;28;20582;-67
2021/01/28 03:43:36;;;;;;;5.57;3.70;;;;;;;-3.89;81.79;99451.03;5085785;28;20017;-67
2021/01/28 03:46:01;;;;;;;7.25;4.47;;;;;;;-3.90;82.00;99459.47;5083585;28;20074;-67
2021/01/28 03:48:27;;;;;;;8.88;6.15;;;;;;;-3.90;81.74;99462.84;5085616;28;20020;-70
2021/01/28 03:50:52;;;;;;;7.25;4.03;;;;;;;-3.96;82.02;99456.72;5084097;28;20250;-67
2021/01/28 03:53:17;;;;;;;12.10;5.78;;;;;;;-3.97;81.79;99455.84;5085688;28;20043;-67
2021/01/28 03:55:43;;;;;;;5.93;3.33;;;;;;;-4.04;82.06;99449.69;5085166;28;20028;-66
2021/01/28 03:58:08;;;;;;;11.05;5.63;;;;;;;-4.08;82.24;99455.47;5085318;28;20017;-67
2021/01/28 04:00:35;;;;;;;7.97;4.47;;;;;;;-4.10;81.98;99459.63;5085191;28;20051;-68
2021/01/28 04:03:01;;;;;;;10.48;6.13;;;;;;;-4.19;82.26;99454.22;5085397;28;20033;-67
2021/01/28 04:05:27;;;;;;;9.48;4.35;;;;;;;-4.15;82.25;99456.06;5083668;28;20030;-68
2021/01/28 04:07:53;;;;;;;6.45;4.18;;;;;;;-4.17;81.92;99445.00;5085131;28;20481;-67
2021/01/28 04:10:23;;;;;;;7.85;4.68;;;;;;;-4.19;81.99;99454.22;5084796;28;20036;-69
2021/01/28 04:12:49;;;;;;;5.63;3.78;;;;;;;-4.24;82.15;99454.06;5085203;28;20012;-68
2021/01/28 04:15:15;;;;;;;7.00;4.55;;;;;;;-4.20;82.19;99455.03;5084767;28;20274;-68
2021/01/28 04:17:41;;;;;;;7.53;3.75;;;;;;;-4.20;82.19;99458.41;5084925;28;20027;-68
2021/01/28 04:20:08;;;;;;;9.43;4.13;;;;;;;-4.16;82.27;99445.06;5084827;28;20024;-68
2021/01/28 04:22:34;;;;;;;6.20;4.53;;;;;;;-4.20;82.08;99443.22;5084936;28;20074;-68
2021/01/28 04:24:59;;;;;;;8.30;4.50;;;;;;;-4.19;82.25;99449.16;5083018;28;20024;-67
2021/01/28 04:27:25;;;;;;;7.85;4.50;;;;;;;-4.15;82.13;99450.97;5084753;28;20040;-66
2021/01/28 04:29:50;;;;;;;8.45;4.93;;;;;;;-4.13;82.32;99446.84;5084610;28;20036;-68
2021/01/28 04:32:16;;;;;;;8.60;4.35;;;;;;;-4.15;82.34;99450.97;5084660;28;20032;-67
2021/01/28 04:34:41;;;;;;;8.02;4.75;;;;;;;-4.15;82.27;99443.38;5084463;28;20031;-67
2021/01/28 04:37:07;;;;;;;7.28;4.20;;;;;;;-4.05;82.09;99436.97;5084346;28;20040;-67
2021/01/28 04:39:32;;;;;;;6.22;4.28;;;;;;;-4.08;82.32;99447.88;5084475;28;20140;-67
2021/01/28 04:41:58;;;;;;;7.95;4.50;;;;;;;-4.05;82.68;99434.44;5084176;28;20027;-68
2021/01/28 04:44:24;;;;;;;8.98;4.32;;;;;;;-3.98;82.01;99431.31;5084420;28;20055;-67
2021/01/28 04:46:53;;;;;;;10.35;6.20;;;;;;;-4.01;82.02;99421.06;5084475;28;20026;-68
2021/01/28 04:49:20;;;;;;;5.93;3.72;;;;;;;-4.00;82.12;99433.81;5083069;28;20127;-68
2021/01/28 04:51:49;;;;;;;8.75;4.72;;;;;;;-3.96;82.23;99432.22;5084304;28;20033;-68
2021/01/28 04:54:25;;;;;;;5.70;4.60;;;;;;;-3.90;81.90;99434.13;5084153;28;20024;-68
2021/01/28 04:56:52;;;;;;;4.60;3.38;;;;;;;-3.91;82.09;99427.28;5083896;28;20025;-67
2021/01/28 04:59:27;;;;;;;19.52;3.47;;;;;;;-3.87;81.61;99427.47;5083460;28;20043;-68
2021/01/28 05:01:53;;;;;;;9.88;4.85;;;;;;;-3.91;81.49;99429.84;5084140;28;20024;-68
2021/01/28 05:04:20;;;;;;;5.00;2.90;;;;;;;-3.85;81.19;99409.78;5083955;28;20020;-67
2021/01/28 05:06:50;;;;;;;6.20;2.60;;;;;;;-3.96;81.54;99431.38;5084056;28;20024;-66
2021/01/28 05:09:17;;;;;;;2.17;1.30;;;;;;;-3.98;81.50;99427.09;5084095;28;20055;-67
2021/01/28 05:11:51;;;;;;;2.60;1.98;;;;;;;-3.94;81.65;99420.47;5082355;28;20352;-67
2021/01/28 05:14:21;;;;;;;3.72;2.70;;;;;;;-3.91;81.63;99420.56;5083976;28;20025;-67
2021/01/28 05:16:50;;;;;;;3.10;2.10;;;;;;;-3.89;81.74;99421.50;5083726;28;20441;-67
2021/01/28 05:19:46;;;;;;;3.47;2.17;;;;;;;-3.79;81.32;99425.19;5083670;28;20028;-66
2021/01/28 05:22:30;;;;;;;3.22;2.15;;;;;;;-3.84;81.28;99426.72;5079152;28;20032;-67
2021/01/28 05:25:00;;;;;;;9.07;3.45;;;;;;;-3.89;81.59;99418.06;5083266;28;20084;-66
2021/01/28 05:27:25;;;;;;;4.25;2.63;;;;;;;-3.81;81.24;99419.22;5083653;28;20012;-67
2021/01/28 05:29:54;;;;;;;8.80;4.07;;;;;;;-3.84;81.26;99416.56;5082260;28;20071;-67
2021/01/28 05:32:32;;;;;;;3.60;2.63;;;;;;;-3.81;81.57;99404.00;5083574;28;20047;-68
2021/01/28 05:35:18;;;;;;;7.60;3.75;;;;;;;-3.83;81.40;99412.38;5083557;28;20021;-68
2021/01/28 05:37:44;;;;;;;6.88;3.25;;;;;;;-3.89;81.16;99410.47;5083483;28;20036;-67
2021/01/28 05:40:11;;;;;;;5.80;3.45;;;;;;;-3.87;81.25;99416.47;5083419;28;20030;-66
2021/01/28 05:42:40;;;;;;;7.57;4.07;;;;;;;-3.91;81.50;99422.22;5083534;28;20031;-68
2021/01/28 05:45:22;;;;;;;5.82;2.78;;;;;;;-3.85;81.33;99412.31;5081899;28;20626;-67
2021/01/28 05:47:49;;;;;;;5.55;3.40;;;;;;;-3.90;81.42;99417.19;5083475;28;20096;-68
2021/01/28 05:50:21;;;;;;;4.50;2.78;;;;;;;-3.88;81.13;99415.59;5082122;28;20020;-68
2021/01/28 05:52:46;;;;;;;;;;;;;;;-3.83;80.74;99413.22;5083977;28;20039;-69
2021/01/28 05:55:17;;;;;;;5.22;2.75;;;;;;;-3.98;80.95;99416.94;5081956;28;20324;-68
2021/01/28 05:57:52;;;;;;;9.85;4.30;;;;;;;-4.03;80.98;99415.94;5082027;28;20013;-68
2021/01/28 06:00:33;;;;;;;3.83;2.33;;;;;;;-4.06;81.30;99402.28;5082178;28;20091;-68
2021/01/28 06:03:20;;;;;;;5.47;2.50;;;;;;;-4.11;81.35;99405.53;5083858;28;20028;-68
2021/01/28 06:06:07;;;;;;;8.25;3.97;;;;;;;-4.07;81.27;99411.56;5082421;28;20233;-67
2021/01/28 06:09:04;;;;;;;3.75;2.80;;;;;;;-4.02;81.19;99410.06;5083325;28;20067;-67
2021/01/28 06:11:48;;;;;;;3.70;2.45;;;;;;;-4.05;81.26;99396.41;5064328;28;20037;-67
2021/01/28 06:14:49;;;;;;;4.50;2.78;;;;;;;-4.11;81.38;99413.16;5063734;22;20125;-68
2021/01/28 06:17:41;;;;;;;4.35;2.17;;;;;;;-4.04;81.27;99408.28;5027178;28;20082;-68
2021/01/28 06:20:37;;;;;;;4.53;3.03;;;;;;;-4.02;81.28;99412.59;5027613;28;20025;-75
2021/01/28 06:23:42;;;;;;;6.18;2.75;;;;;;;-3.93;81.03;99403.56;5027582;28;20026;-68
2021/01/28 06:26:24;;;;;;;4.43;1.83;;;;;;;-3.90;80.81;99391.84;5027113;28;20018;-68
2021/01/28 06:29:19;;;;;;;;;;;;;;;-3.88;80.84;99400.38;5027799;28;20036;-72
2021/01/28 06:31:51;;;;;;;4.88;2.63;;;;;;;-3.92;80.80;99411.25;5027271;28;19919;-71
2021/01/28 06:34:45;;;;;;;5.07;2.40;;;;;;;-3.96;81.09;99409.38;5027390;28;20089;-72
2021/01/28 06:37:24;;;;;;;3.50;2.03;;;;;;;-3.82;81.09;99402.28;5027194;28;20119;-70
2021/01/28 06:39:52;;;;;;;4.00;2.42;;;;;;;-3.78;80.75;99410.81;5026139;28;20084;-72
2021/01/28 06:42:20;;;;;;;4.35;2.50;;;;;;;-3.76;80.90;99420.22;5026728;28;20018;-71
2021/01/28 06:44:50;;;;;;;4.22;2.40;;;;;;;-3.79;80.55;99409.97;5026914;28;20021;-71
2021/01/28 06:47:26;;;;;;;3.13;2.20;;;;;;;-3.71;80.42;99406.81;5026753;28;20026;-71
2021/01/28 06:49:59;;;;;;;5.28;2.88;;;;;;;-3.70;80.45;99414.50;5025345;28;20295;-73
2021/01/28 06:53:03;;;;;;;3.45;2.53;;;;;;;-3.61;80.20;99412.25;5026992;28;20033;-75
2021/01/28 06:55:35;;;;;;;5.15;2.22;;;;;;;-3.58;79.91;99418.25;5025200;28;20505;-67
2021/01/28 06:58:11;;;;;;;4.55;2.33;;;;;;;-3.63;79.90;99416.44;5026008;28;20090;-72
2021/01/28 07:00:53;;;;;;;4.68;2.10;;;;;;;-3.65;80.19;99405.38;5027007;28;20101;-74
2021/01/28 07:03:29;;;;;;;3.42;2.05;;;;;;;-3.65;79.95;99389.28;5026617;28;20378;-72
2021/01/28 07:06:07;;;;;;;6.20;2.80;;;;;;;-3.62;79.53;99412.19;5026495;28;20037;-72
2021/01/28 07:08:58;;;;;;;4.28;2.80;;;;;;;-3.64;79.46;99406.22;5026429;28;20104;-73
2021/01/28 07:11:34;;;;;;;3.65;2.35;;;;;;;-3.60;79.64;99415.66;5026145;28;20029;-72
2021/01/28 07:14:01;;;;;;;4.85;2.17;;;;;;;-3.62;79.05;99418.16;5026100;28;20203;-72
2021/01/28 07:16:35;;;;;;;6.07;2.28;;;;;;;-3.77;79.22;99415.94;5026267;28;20032;-73
2021/01/28 07:19:10;;;;;;;6.20;2.38;;;;;;;-3.76;79.35;99414.28;5026309;28;20037;-72
2021/01/28 07:21:39;;;;;;;4.13;2.17;;;;;;;-3.78;79.47;99416.78;5025570;28;20117;-68
2021/01/28 07:24:06;;;;;;;7.93;3.10;;;;;;;-3.77;79.38;99428.63;5026196;28;20509;-72
2021/01/28 07:27:01;;;;;;;4.05;2.25;;;;;;;-3.76;79.75;99425.31;5025902;28;20557;-72
2021/01/28 07:29:38;;;;;;;2.65;1.77;;;;;;;-3.66;79.22;99433.22;5025739;28;20045;-72
2021/01/28 07:32:06;;;;;;;4.88;2.38;;;;;;;-3.75;79.50;99426.16;5026256;28;20030;-72
2021/01/28 07:34:32;;;;;;;4.72;2.28;;;;;;;-3.75;79.41;99423.59;5026363;28;20022;-72
2021/01/28 07:37:27;;;;;;;3.42;2.30;;;;;;;-3.70;79.46;99433.91;5026132;28;20057;-71
2021/01/28 07:39:53;;;;;;;4.25;1.77;;;;;;;-3.77;79.44;99417.66;5026359;28;20133;-70
2021/01/28 07:42:21;;;;;;;3.47;2.15;;;;;;;-3.67;79.50;99427.28;5026058;28;20520;-71
2021/01/28 07:44:49;;;;;;;2.05;1.73;;;;;;;-3.72;79.43;99425.41;5026757;28;20037;-73
2021/01/28 07:47:34;;;;;;;1.73;1.48;;;;;;;-3.58;78.72;99434.34;5024824;28;20025;-71
2021/01/28 07:50:29;;;;;;;3.95;2.42;;;;;;;-3.69;78.85;99428.88;5024844;28;20026;-72
2021/01/28 07:52:55;;;;;;;5.88;2.22;;;;;;;-3.68;79.28;99439.91;5030471;28;20065;-71
2021/01/28 07:55:41;;;;;;;5.55;1.95;;;;;;;-3.68;79.08;99432.31;5035300;28;20088;-72
2021/01/28 07:58:45;;;;;;;4.03;1.67;;;;;;;-3.61;79.24;99444.41;5037635;28;20030;-72
2021/01/28 08:01:13;;;;;;;4.05;2.13;;;;;;;-3.59;79.46;99447.81;5024289;28;20096;-71
2021/01/28 08:04:05;;;;;;;5.10;2.22;;;;;;;-3.56;79.33;99440.31;5025705;28;20022;-72
2021/01/28 08:06:33;;;;;;;7.88;2.13;;;;;;;-3.55;79.58;99439.53;5025403;28;20025;-72
2021/01/28 08:09:11;;;;;;;6.18;2.05;;;;;;;-3.53;79.25;99434.50;5024295;28;20089;-72
2021/01/28 08:11:37;;;;;;;6.63;1.85;;;;;;;-3.46;78.98;99441.50;5023812;28;20018;-73
2021/01/28 08:14:06;;;;;;;2.40;1.60;;;;;;;-3.51;79.08;99441.34;5025486;28;20052;-73
2021/01/28 08:16:33;;;;;;;4.97;1.80;;;;;;;-3.44;78.69;99450.03;5023752;28;20028;-73
2021/01/28 08:19:11;;;;;;;4.18;2.53;;;;;;;-3.50;78.72;99455.75;5025236;28;20045;-73
2021/01/28 08:21:36;;;;;;;5.43;3.13;;;;;;;-3.54;78.67;99446.31;5025261;28;20029;-73
2021/01/28 08:24:34;;;;;;;4.47;1.50;;;;;;;-3.46;78.71;99453.31;5024114;28;20034;-74
2021/01/28 08:27:20;;;;;;;1.70;1.45;;;;;;;-3.46;78.65;99444.03;5024884;28;20036;-72
2021/01/28 08:30:20;;;;;;;2.45;1.70;;;;;;;-3.45;78.69;99445.75;5023796;28;20033;-72
2021/01/28 08:32:47;;;;;;;3.28;1.83;;;;;;;-3.49;78.60;99442.25;5024922;28;20060;-74
2021/01/28 08:35:37;;;;;;;4.47;1.73;;;;;;;-3.39;78.87;99445.09;5024706;28;20026;-70
2021/01/28 08:38:38;;;;;;;1.85;1.33;;;;;;;-3.34;78.33;99445.25;5024759;28;20022;-72
2021/01/28 08:41:15;;;;;;;2.78;1.10;;;;;;;-3.35;78.29;99441.84;5024212;28;20037;-71
2021/01/28 08:43:42;;;;;;;2.35;1.63;;;;;;;-3.35;78.40;99446.91;5024893;28;20083;-72
2021/01/28 08:46:19;;;;;;;2.75;1.40;;;;;;;-3.32;78.32;99449.53;5024393;28;20081;-72
2021/01/28 08:48:46;;;;;;;2.15;1.10;;;;;;;-3.30;77.80;99419.13;5024799;28;20014;-72
2021/01/28 08:51:19;;;;;;;2.25;1.38;;;;;;;-3.42;77.90;99435.69;5024718;28;20026;-72
2021/01/28 08:53:57;;;;;;;3.63;1.27;;;;;;;-3.29;77.54;99446.25;5024534;28;20506;-73
2021/01/28 08:56:27;;;;;;;2.35;1.25;;;;;;;-3.33;78.05;99430.06;5024052;28;20041;-73
2021/01/28 08:58:54;;;;;;;2.67;1.58;;;;;;;-3.26;77.87;99442.13;5024400;28;20030;-73
2021/01/28 09:01:20;;;;;;;4.05;1.50;;;;;;;-3.28;77.62;99432.75;5024355;28;20040;-72
2021/01/28 09:03:59;;;;;;;3.88;2.05;;;;;;;-3.24;77.97;99439.63;5024314;28;20034;-73
2021/01/28 09:06:24;;;;;;;2.10;1.42;;;;;;;-3.15;77.63;99441.63;5022919;28;20056;-73
2021/01/28 09:09:13;;;;;;;2.40;1.50;;;;;;;-3.07;77.58;99442.72;5024629;28;20026;-70
2021/01/28 09:11:38;;;;;;;2.00;1.42;;;;;;;-3.06;77.58;99443.56;5024228;28;20560;-72
2021/01/28 09:14:32;;;;;;;3.60;1.10;;;;;;;-2.99;77.34;99441.28;5024028;28;20057;-72
2021/01/28 09:16:59;;;;;;;5.78;2.10;;;;;;;-2.95;77.17;99426.13;5024247;28;20117;-73
2021/01/28 09:19:26;;;;;;;2.15;1.40;;;;;;;-2.93;77.27;99432.13;5024016;28;20034;-72
2021/01/28 09:21:56;;;;;;;2.25;1.40;;;;;;;-2.96;76.94;99432.91;5024326;28;20025;-73
2021/01/28 09:24:44;;;;;;;35.75;2.55;;;;;;;-2.89;76.95;99436.50;5024186;28;20041;-74
2021/01/28 09:27:25;;;;;;;3.65;1.67;;;;;;;-2.81;77.35;99429.94;5023925;28;20072;-74
2021/01/28 09:29:52;;;;;;;5.20;1.65;;;;;;;-2.12;77.14;99436.97;5024123;28;20726;-73
2021/01/28 09:32:17;;;;;;;2.55;1.33;;;;;;;-1.57;76.08;99441.81;5024116;28;20089;-73
2021/01/28 09:34:43;;;;;;;3.97;1.98;;;;;;;-1.12;75.09;99449.69;5022478;28;20037;-74
2021/01/28 09:37:22;;;;;;;2.67;1.17;;;;;;;-0.79;73.64;99433.44;5023620;28;20049;-75
2021/01/28 09:39:51;;;;;;;4.20;1.52;;;;;;;-0.64;72.19;99439.72;5024063;28;20057;-73
2021/01/28 09:42:31;;;;;;;7.18;2.05;;;;;;;-0.78;72.22;99441.94;5023736;28;20033;-73
2021/01/28 09:45:09;;;;;;;3.30;1.17;;;;;;;-0.27;72.36;99447.22;5023309;28;20030;-73
2021/01/28 09:47:36;;;;;;;2.10;1.10;;;;;;;-0.25;70.27;99435.38;5023644;28;20370;-74
2021/01/28 09:50:11;;;;;;;2.00;1.38;;;;;;;-0.44;70.72;99442.66;5023677;28;20030;-74
2021/01/28 09:52:41;;;;;;;5.20;1.55;;;;;;;-0.74;70.52;99453.94;5023765;28;20094;-73
2021/01/28 09:55:11;;;;;;;4.32;1.52;;;;;;;-1.20;70.12;99446.09;5023573;28;20032;-74
2021/01/28 09:57:37;;;;;;;4.68;2.10;;;;;;;-1.52;70.89;99449.56;5022131;28;20046;-73
2021/01/28 10:00:06;;;;;;;7.32;1.60;;;;;;;-1.68;72.17;99458.50;5022304;28;20037;-73
2021/01/28 10:02:40;;;;;;;2.25;1.10;;;;;;;-1.69;72.52;99461.88;5022311;28;20026;-74
2021/01/28 10:05:08;;;;;;;2.25;1.40;;;;;;;-1.90;72.07;99461.31;5023575;28;20490;-74
2021/01/28 10:07:33;;;;;;;1.77;1.23;;;;;;;-2.14;72.52;99449.66;5023423;28;20026;-75
2021/01/28 10:10:02;;;;;;;2.28;1.30;;;;;;;-2.22;72.44;99460.44;5023636;28;20712;-75
2021/01/28 10:12:28;;;;;;;2.10;1.48;;;;;;;-2.36;72.95;99453.25;5021966;28;20029;-75
2021/01/28 10:14:55;;;;;;;1.83;1.30;;;;;;;-2.38;73.15;99463.38;5023573;28;20033;-75
2021/01/28 10:17:21;;;;;;;2.38;1.13;;;;;;;-2.41;73.16;99458.22;5038435;28;20496;-74
2021/01/28 10:19:47;;;;;;;1.17;0.93;;;;;;;-2.52;73.43;99436.72;5021867;28;20029;-74
2021/01/28 10:22:15;;;;;;;1.38;1.00;;;;;;;-2.46;73.39;99464.00;5022055;28;20030;-76
2021/01/28 10:24:41;;;;;;;4.68;1.20;;;;;;;-2.45;72.93;99474.22;5023328;28;20033;-75
2021/01/28 10:27:07;;;;;;;1.92;1.10;;;;;;;-2.64;72.79;99444.84;5021872;28;20021;-74
2021/01/28 10:29:32;;;;;;;4.07;1.40;;;;;;;-2.65;72.47;99461.75;5023465;28;20018;-75
2021/01/28 10:31:58;;;;;;;2.15;1.25;;;;;;;-3.01;73.28;99407.38;5023246;28;20061;-75
2021/01/28 10:34:24;;;;;;;6.22;2.08;;;;;;;-2.58;72.95;99457.72;5023454;28;20022;-74
2021/01/28 10:36:50;;;;;;;2.85;1.52;;;;;;;-2.59;73.03;99471.28;5023222;28;20037;-75
2021/01/28 10:39:17;;;;;;;3.90;1.73;;;;;;;-2.80;73.29;99430.81;5023335;28;20026;-75
2021/01/28 10:41:43;;;;;;;4.07;1.50;;;;;;;-2.54;73.36;99467.16;5023188;28;20013;-75
2021/01/28 10:44:09;;;;;;;3.08;1.35;;;;;;;-2.51;72.94;99459.63;5023379;28;20628;-74
2021/01/28 10:46:34;;;;;;;2.40;1.50;;;;;;;-2.45;72.73;99458.97;5023070;28;20032;-76
2021/01/28 10:48:59;;;;;;;5.63;2.70;;;;;;;-2.38;72.97;99476.09;5023372;28;20030;-71
2021/01/28 10:51:25;;;;;;;2.85;1.98;;;;;;;-2.34;72.74;99451.63;5023120;28;20034;-74
2021/01/28 10:53:50;;;;;;;2.40;1.30;;;;;;;-2.28;71.87;99456.03;5023267;28;20037;-75
2021/01/28 10:56:16;;;;;;;5.20;1.50;;;;;;;-2.29;72.37;99439.94;5038873;28;20026;-74
2021/01/28 10:58:41;;;;;;;3.50;1.48;;;;;;;-2.28;72.29;99420.44;5027138;28;20026;-76
2021/01/28 11:01:06;;;;;;;1.70;1.27;;;;;;;-2.19;71.25;99399.50;5026749;28;20355;-72
2021/01/28 11:03:34;;;;;;;4.05;2.05;;;;;;;-1.88;71.90;99461.34;5026774;28;20056;-75
2021/01/28 11:06:00;;;;;;;2.03;1.40;;;;;;;-1.65;72.08;99458.56;5026513;28;20056;-75
2021/01/28 11:08:28;;;;;;;7.25;1.10;;;;;;;-1.46;71.83;99444.63;5025373;28;20474;-73
2021/01/28 11:10:54;;;;;;;1.10;1.00;;;;;;;-1.07;70.17;99443.00;5026259;28;20017;-74
2021/01/28 11:13:20;;;;;;;1.23;0.95;;;;;;;-1.19;68.49;99451.22;5026133;28;20049;-76
2021/01/28 11:15:45;;;;;;;3.20;1.70;;;;;;;-1.47;68.37;99419.13;5026052;28;20026;-75
2021/01/28 11:18:11;;;;;;;1.40;0.90;;;;;;;-1.48;68.53;99430.13;5025951;28;20026;-76
2021/01/28 11:20:37;;;;;;;4.47;1.95;;;;;;;-1.18;67.97;99455.47;5026516;28;20029;-75
2021/01/28 11:23:03;;;;;;;2.90;1.27;;;;;;;-1.12;67.59;99453.06;5026368;28;20030;-75
2021/01/28 11:25:29;;;;;;;5.85;1.77;;;;;;;-0.54;67.21;99440.75;5026170;28;20022;-75
2021/01/28 11:27:55;;;;;;;5.30;1.98;;;;;;;-0.31;65.63;99440.38;5026250;28;20030;-76
2021/01/28 11:30:25;;;;;;;4.28;1.60;;;;;;;-0.69;65.15;99414.13;5024761;28;20058;-75
2021/01/28 11:32:51;;;;;;;8.77;1.70;;;;;;;-0.01;64.55;99455.44;5025882;28;20040;-74
2021/01/28 11:35:20;;;;;;;3.45;1.80;;;;;;;0.56;63.43;99446.22;5041166;28;20049;-76
2021/01/28 11:37:46;;;;;;;5.32;1.60;;;;;;;0.96;61.60;99441.72;5024686;28;20113;-75
2021/01/28 11:40:18;;;;;;;1.90;1.10;;;;;;;1.26;61.38;99444.72;5024753;28;20021;-76
2021/01/28 11:42:44;;;;;;;1.83;1.40;;;;;;;1.07;61.04;99402.72;5025802;28;20026;-76
2021/01/28 11:45:10;;;;;;;4.35;1.10;;;;;;;0.65;61.95;99425.06;5025006;28;20033;-75
2021/01/28 11:47:37;;;;;;;5.30;1.30;;;;;;;0.08;63.50;99425.81;5024394;28;20022;-74
2021/01/28 11:50:04;;;;;;;3.08;1.63;;;;;;;-0.46;63.29;99425.63;5026071;28;20018;-74
2021/01/28 11:52:29;;;;;;;6.75;1.88;;;;;;;-1.09;64.59;99438.69;5025656;28;20033;-75